sensor_id;sensor_type;location;lat;lon;timestamp;temperature;humidity
25208;DHT22;13153;52.316;21.166;2023-07-29T00:00:58;17.90;99.90
25208;DHT22;13153;52.316;21.166;2023-07-29T00:03:25;17.90;99.90
25208;DHT22;13153;52.316;21.166;2023-07-29T00:05:51;17.90;99.90
25208;DHT22;13153;52.316;21.166;2023-07-29T00:08:17;17.90;99.90
25208;DHT22;13153;52.316;21.166;2023-07-29T00:10:42;17.90;99.90
25208;DHT22;13153;52.316;21.166;2023-07-29T00:13:08;17.80;99.90
25208;DHT22;13153;52.316;21.166;2023-07-29T00:15:34;17.80;99.90
25208;DHT22;13153;52.316;21.166;2023-07-29T00:18:00;17.80;99.90
25208;DHT22;13153;52.316;21.166;2023-07-29T00:20:26;17.80;99.90
25208;DHT22;13153;52.316;21.166;2023-07-29T00:22:52;17.80;99.90
25208;DHT22;13153;52.316;21.166;2023-07-29T00:25:21;17.80;99.90
25208;DHT22;13153;52.316;21.166;2023-07-29T00:27:47;17.80;99.90
25208;DHT22;13153;52.316;21.166;2023-07-29T00:30:13;17.70;99.90
25208;DHT22;13153;52.316;21.166;2023-07-29T00:32:39;17.70;99.90
25208;DHT22;13153;52.316;21.166;2023-07-29T00:35:05;17.70;99.90
25208;DHT22;13153;52.316;21.166;2023-07-29T00:37:31;17.60;99.90
25208;DHT22;13153;52.316;21.166;2023-07-29T00:39:57;17.60;99.90
25208;DHT22;13153;52.316;21.166;2023-07-29T00:42:24;17.60;99.90
25208;DHT22;13153;52.316;21.166;2023-07-29T00:44:50;17.60;99.90
25208;DHT22;13153;52.316;21.166;2023-07-29T00:47:16;17.60;99.90
25208;DHT22;13153;52.316;21.166;2023-07-29T00:49:45;17.60;99.90
25208;DHT22;13153;52.316;21.166;2023-07-29T00:52:11;17.50;99.90
25208;DHT22;13153;52.316;21.166;2023-07-29T00:54:41;17.50;99.90
25208;DHT22;13153;52.316;21.166;2023-07-29T00:57:08;17.50;99.90
25208;DHT22;13153;52.316;21.166;2023-07-29T00:59:37;17.50;99.90
25208;DHT22;13153;52.316;21.166;2023-07-29T01:02:03;17.40;99.90
25208;DHT22;13153;52.316;21.166;2023-07-29T01:04:29;17.40;99.90
25208;DHT22;13153;52.316;21.166;2023-07-29T01:12:53;17.40;99.90
25208;DHT22;13153;52.316;21.166;2023-07-29T01:18:20;17.30;99.90
25208;DHT22;13153;52.316;21.166;2023-07-29T01:20:53;17.30;99.90
25208;DHT22;13153;52.316;21.166;2023-07-29T01:23:29;17.30;99.90
25208;DHT22;13153;52.316;21.166;2023-07-29T01:25:56;17.20;99.90
25208;DHT22;13153;52.316;21.166;2023-07-29T01:28:22;17.20;99.90
25208;DHT22;13153;52.316;21.166;2023-07-29T01:30:51;17.20;99.90
25208;DHT22;13153;52.316;21.166;2023-07-29T01:33:27;17.20;99.90
25208;DHT22;13153;52.316;21.166;2023-07-29T01:36:03;17.10;99.90
25208;DHT22;13153;52.316;21.166;2023-07-29T01:38:37;17.10;99.90
25208;DHT22;13153;52.316;21.166;2023-07-29T01:41:07;17.10;99.90
25208;DHT22;13153;52.316;21.166;2023-07-29T01:43:34;17.10;99.90
25208;DHT22;13153;52.316;21.166;2023-07-29T01:46:09;17.10;99.90
25208;DHT22;13153;52.316;21.166;2023-07-29T01:48:36;17.10;99.90
25208;DHT22;13153;52.316;21.166;2023-07-29T01:51:02;17.10;99.90
25208;DHT22;13153;52.316;21.166;2023-07-29T01:53:28;17.10;99.90
25208;DHT22;13153;52.316;21.166;2023-07-29T01:55:54;17.10;99.90
25208;DHT22;13153;52.316;21.166;2023-07-29T01:58:19;17.10;99.90
25208;DHT22;13153;52.316;21.166;2023-07-29T02:00:45;17.10;99.90
25208;DHT22;13153;52.316;21.166;2023-07-29T02:03:11;17.10;99.90
25208;DHT22;13153;52.316;21.166;2023-07-29T02:05:36;17.10;99.90
25208;DHT22;13153;52.316;21.166;2023-07-29T02:08:02;17.10;99.90
25208;DHT22;13153;52.316;21.166;2023-07-29T02:10:28;17.10;99.90
25208;DHT22;13153;52.316;21.166;2023-07-29T02:12:54;17.10;99.90
25208;DHT22;13153;52.316;21.166;2023-07-29T02:15:19;17.10;99.90
25208;DHT22;13153;52.316;21.166;2023-07-29T02:17:45;17.10;99.90
25208;DHT22;13153;52.316;21.166;2023-07-29T02:20:11;17.00;99.90
25208;DHT22;13153;52.316;21.166;2023-07-29T02:22:37;17.00;99.90
25208;DHT22;13153;52.316;21.166;2023-07-29T02:25:03;17.10;99.90
25208;DHT22;13153;52.316;21.166;2023-07-29T02:27:29;17.10;99.90
25208;DHT22;13153;52.316;21.166;2023-07-29T02:29:55;17.10;99.90
25208;DHT22;13153;52.316;21.166;2023-07-29T02:32:21;17.10;99.90
25208;DHT22;13153;52.316;21.166;2023-07-29T02:34:46;17.10;99.90
25208;DHT22;13153;52.316;21.166;2023-07-29T02:37:12;17.10;99.90
25208;DHT22;13153;52.316;21.166;2023-07-29T02:39:38;17.10;99.90
25208;DHT22;13153;52.316;21.166;2023-07-29T02:42:04;17.10;99.90
25208;DHT22;13153;52.316;21.166;2023-07-29T02:44:29;17.10;99.90
25208;DHT22;13153;52.316;21.166;2023-07-29T02:46:55;17.10;99.90
25208;DHT22;13153;52.316;21.166;2023-07-29T02:49:22;17.10;99.90
25208;DHT22;13153;52.316;21.166;2023-07-29T02:51:49;17.10;99.90
25208;DHT22;13153;52.316;21.166;2023-07-29T02:54:14;17.10;99.90
25208;DHT22;13153;52.316;21.166;2023-07-29T02:56:40;17.00;99.90
25208;DHT22;13153;52.316;21.166;2023-07-29T02:59:06;17.10;99.90
25208;DHT22;13153;52.316;21.166;2023-07-29T03:01:31;17.10;99.90
25208;DHT22;13153;52.316;21.166;2023-07-29T03:03:57;17.10;99.90
25208;DHT22;13153;52.316;21.166;2023-07-29T03:06:23;17.10;99.90
25208;DHT22;13153;52.316;21.166;2023-07-29T03:08:49;17.00;99.90
25208;DHT22;13153;52.316;21.166;2023-07-29T03:11:16;17.10;99.90
25208;DHT22;13153;52.316;21.166;2023-07-29T03:13:42;17.10;99.90
25208;DHT22;13153;52.316;21.166;2023-07-29T03:16:10;17.10;99.90
25208;DHT22;13153;52.316;21.166;2023-07-29T03:18:41;17.10;99.90
25208;DHT22;13153;52.316;21.166;2023-07-29T03:21:08;17.10;99.90
25208;DHT22;13153;52.316;21.166;2023-07-29T03:23:35;17.20;99.90
25208;DHT22;13153;52.316;21.166;2023-07-29T03:26:03;17.20;99.90
25208;DHT22;13153;52.316;21.166;2023-07-29T03:28:37;17.20;99.90
25208;DHT22;13153;52.316;21.166;2023-07-29T03:31:04;17.30;99.90
25208;DHT22;13153;52.316;21.166;2023-07-29T03:33:30;17.30;99.90
25208;DHT22;13153;52.316;21.166;2023-07-29T03:35:56;17.40;99.90
25208;DHT22;13153;52.316;21.166;2023-07-29T03:38:22;17.50;99.90
25208;DHT22;13153;52.316;21.166;2023-07-29T03:40:48;17.60;99.90
25208;DHT22;13153;52.316;21.166;2023-07-29T03:43:14;17.70;99.90
25208;DHT22;13153;52.316;21.166;2023-07-29T03:45:40;17.80;99.90
25208;DHT22;13153;52.316;21.166;2023-07-29T03:48:06;17.80;99.90
25208;DHT22;13153;52.316;21.166;2023-07-29T03:50:34;17.80;99.90
25208;DHT22;13153;52.316;21.166;2023-07-29T03:53:01;17.80;99.90
25208;DHT22;13153;52.316;21.166;2023-07-29T03:55:28;17.80;99.90
25208;DHT22;13153;52.316;21.166;2023-07-29T03:57:59;17.80;99.90
25208;DHT22;13153;52.316;21.166;2023-07-29T04:00:26;17.90;99.90
25208;DHT22;13153;52.316;21.166;2023-07-29T04:02:52;17.90;99.90
25208;DHT22;13153;52.316;21.166;2023-07-29T04:05:18;18.00;99.90
25208;DHT22;13153;52.316;21.166;2023-07-29T04:07:44;18.10;99.90
25208;DHT22;13153;52.316;21.166;2023-07-29T04:10:10;18.10;99.90
25208;DHT22;13153;52.316;21.166;2023-07-29T04:12:37;18.20;99.90
25208;DHT22;13153;52.316;21.166;2023-07-29T04:15:03;18.20;99.90
25208;DHT22;13153;52.316;21.166;2023-07-29T04:17:29;18.10;99.90
25208;DHT22;13153;52.316;21.166;2023-07-29T04:19:55;18.10;99.90
25208;DHT22;13153;52.316;21.166;2023-07-29T04:22:21;18.10;99.90
25208;DHT22;13153;52.316;21.166;2023-07-29T04:24:47;18.10;99.90
25208;DHT22;13153;52.316;21.166;2023-07-29T04:27:13;18.20;99.90
25208;DHT22;13153;52.316;21.166;2023-07-29T04:29:38;18.20;99.90
25208;DHT22;13153;52.316;21.166;2023-07-29T04:32:05;18.40;99.90
25208;DHT22;13153;52.316;21.166;2023-07-29T04:34:31;18.40;99.90
25208;DHT22;13153;52.316;21.166;2023-07-29T04:36:57;18.50;99.90
25208;DHT22;13153;52.316;21.166;2023-07-29T04:39:23;18.50;99.90
25208;DHT22;13153;52.316;21.166;2023-07-29T04:41:49;18.40;99.90
25208;DHT22;13153;52.316;21.166;2023-07-29T04:44:15;18.50;99.90
25208;DHT22;13153;52.316;21.166;2023-07-29T04:46:40;18.40;99.90
25208;DHT22;13153;52.316;21.166;2023-07-29T04:49:06;18.40;99.90
25208;DHT22;13153;52.316;21.166;2023-07-29T04:51:32;18.30;99.90
25208;DHT22;13153;52.316;21.166;2023-07-29T04:53:58;18.30;99.90
25208;DHT22;13153;52.316;21.166;2023-07-29T04:56:24;18.30;99.90
25208;DHT22;13153;52.316;21.166;2023-07-29T04:58:51;18.20;99.90
25208;DHT22;13153;52.316;21.166;2023-07-29T05:01:17;18.10;99.90
25208;DHT22;13153;52.316;21.166;2023-07-29T05:03:43;18.10;99.90
25208;DHT22;13153;52.316;21.166;2023-07-29T05:06:09;17.90;99.90
25208;DHT22;13153;52.316;21.166;2023-07-29T05:08:36;17.90;99.90
25208;DHT22;13153;52.316;21.166;2023-07-29T05:11:02;17.90;99.90
25208;DHT22;13153;52.316;21.166;2023-07-29T05:13:27;17.90;99.90
25208;DHT22;13153;52.316;21.166;2023-07-29T05:15:53;17.90;99.90
25208;DHT22;13153;52.316;21.166;2023-07-29T05:18:19;18.00;99.90
25208;DHT22;13153;52.316;21.166;2023-07-29T05:20:46;18.00;99.90
25208;DHT22;13153;52.316;21.166;2023-07-29T05:23:13;18.00;99.90
25208;DHT22;13153;52.316;21.166;2023-07-29T05:25:39;18.00;99.90
25208;DHT22;13153;52.316;21.166;2023-07-29T05:28:04;18.20;99.90
25208;DHT22;13153;52.316;21.166;2023-07-29T05:30:31;18.30;99.90
25208;DHT22;13153;52.316;21.166;2023-07-29T05:32:59;18.40;99.90
25208;DHT22;13153;52.316;21.166;2023-07-29T05:35:25;18.50;99.90
25208;DHT22;13153;52.316;21.166;2023-07-29T05:37:51;18.50;99.90
25208;DHT22;13153;52.316;21.166;2023-07-29T05:40:17;18.50;99.90
25208;DHT22;13153;52.316;21.166;2023-07-29T05:42:43;18.40;99.90
25208;DHT22;13153;52.316;21.166;2023-07-29T05:45:10;18.30;99.90
25208;DHT22;13153;52.316;21.166;2023-07-29T05:47:37;18.30;99.90
25208;DHT22;13153;52.316;21.166;2023-07-29T05:50:03;18.30;99.90
25208;DHT22;13153;52.316;21.166;2023-07-29T05:52:30;18.30;99.90
25208;DHT22;13153;52.316;21.166;2023-07-29T05:54:57;18.40;99.90
25208;DHT22;13153;52.316;21.166;2023-07-29T05:57:22;18.50;99.90
25208;DHT22;13153;52.316;21.166;2023-07-29T05:59:48;18.60;99.90
25208;DHT22;13153;52.316;21.166;2023-07-29T06:02:14;18.80;99.90
25208;DHT22;13153;52.316;21.166;2023-07-29T06:04:40;18.90;99.90
25208;DHT22;13153;52.316;21.166;2023-07-29T06:07:06;19.10;99.90
25208;DHT22;13153;52.316;21.166;2023-07-29T06:09:32;19.40;99.90
25208;DHT22;13153;52.316;21.166;2023-07-29T06:11:58;19.90;99.90
25208;DHT22;13153;52.316;21.166;2023-07-29T06:14:24;20.60;99.90
25208;DHT22;13153;52.316;21.166;2023-07-29T06:16:49;21.20;99.90
25208;DHT22;13153;52.316;21.166;2023-07-29T06:19:15;21.60;99.90
25208;DHT22;13153;52.316;21.166;2023-07-29T06:21:41;22.00;99.90
25208;DHT22;13153;52.316;21.166;2023-07-29T06:24:07;22.60;99.90
25208;DHT22;13153;52.316;21.166;2023-07-29T06:26:33;23.80;99.90
25208;DHT22;13153;52.316;21.166;2023-07-29T06:28:59;25.60;99.90
25208;DHT22;13153;52.316;21.166;2023-07-29T06:31:24;27.10;99.90
25208;DHT22;13153;52.316;21.166;2023-07-29T06:33:50;28.60;99.90
25208;DHT22;13153;52.316;21.166;2023-07-29T06:36:16;30.00;99.90
25208;DHT22;13153;52.316;21.166;2023-07-29T06:38:42;30.70;99.50
25208;DHT22;13153;52.316;21.166;2023-07-29T06:41:08;31.10;95.30
25208;DHT22;13153;52.316;21.166;2023-07-29T06:43:33;31.70;91.80
25208;DHT22;13153;52.316;21.166;2023-07-29T06:45:59;32.30;90.40
25208;DHT22;13153;52.316;21.166;2023-07-29T06:48:25;32.60;81.50
25208;DHT22;13153;52.316;21.166;2023-07-29T06:50:51;32.80;80.00
25208;DHT22;13153;52.316;21.166;2023-07-29T06:53:17;32.90;78.30
25208;DHT22;13153;52.316;21.166;2023-07-29T06:55:43;32.90;76.50
25208;DHT22;13153;52.316;21.166;2023-07-29T06:58:10;33.10;74.10
25208;DHT22;13153;52.316;21.166;2023-07-29T07:00:36;33.30;75.30
25208;DHT22;13153;52.316;21.166;2023-07-29T07:03:01;33.80;71.80
25208;DHT22;13153;52.316;21.166;2023-07-29T07:05:27;34.00;69.80
25208;DHT22;13153;52.316;21.166;2023-07-29T07:07:53;34.30;68.40
25208;DHT22;13153;52.316;21.166;2023-07-29T07:10:19;34.40;69.80
25208;DHT22;13153;52.316;21.166;2023-07-29T07:12:45;34.80;67.50
25208;DHT22;13153;52.316;21.166;2023-07-29T07:15:11;35.20;66.40
25208;DHT22;13153;52.316;21.166;2023-07-29T07:17:36;35.60;62.60
25208;DHT22;13153;52.316;21.166;2023-07-29T07:20:03;35.70;61.80
25208;DHT22;13153;52.316;21.166;2023-07-29T07:22:29;35.60;60.70
25208;DHT22;13153;52.316;21.166;2023-07-29T07:24:55;35.60;59.30
25208;DHT22;13153;52.316;21.166;2023-07-29T07:27:20;35.60;60.10
25208;DHT22;13153;52.316;21.166;2023-07-29T07:29:46;35.70;59.80
25208;DHT22;13153;52.316;21.166;2023-07-29T07:32:12;35.80;58.40
25208;DHT22;13153;52.316;21.166;2023-07-29T07:34:37;35.90;59.00
25208;DHT22;13153;52.316;21.166;2023-07-29T07:37:03;35.90;58.90
25208;DHT22;13153;52.316;21.166;2023-07-29T07:39:30;36.00;57.10
25208;DHT22;13153;52.316;21.166;2023-07-29T07:41:57;36.10;57.00
25208;DHT22;13153;52.316;21.166;2023-07-29T07:44:23;35.90;56.70
25208;DHT22;13153;52.316;21.166;2023-07-29T07:46:52;35.80;56.60
25208;DHT22;13153;52.316;21.166;2023-07-29T07:49:18;35.60;56.10
25208;DHT22;13153;52.316;21.166;2023-07-29T07:51:44;35.10;57.40
25208;DHT22;13153;52.316;21.166;2023-07-29T07:54:10;34.40;57.80
25208;DHT22;13153;52.316;21.166;2023-07-29T07:56:35;33.50;60.40
25208;DHT22;13153;52.316;21.166;2023-07-29T07:59:01;33.10;62.50
25208;DHT22;13153;52.316;21.166;2023-07-29T08:01:27;32.40;63.50
25208;DHT22;13153;52.316;21.166;2023-07-29T08:03:52;31.70;67.20
25208;DHT22;13153;52.316;21.166;2023-07-29T08:06:18;31.70;68.20
25208;DHT22;13153;52.316;21.166;2023-07-29T08:08:44;31.90;64.80
25208;DHT22;13153;52.316;21.166;2023-07-29T08:11:10;32.10;65.60
25208;DHT22;13153;52.316;21.166;2023-07-29T08:13:36;32.20;64.50
25208;DHT22;13153;52.316;21.166;2023-07-29T08:16:01;32.10;65.70
25208;DHT22;13153;52.316;21.166;2023-07-29T08:18:27;31.80;66.00
25208;DHT22;13153;52.316;21.166;2023-07-29T08:20:57;31.40;66.70
25208;DHT22;13153;52.316;21.166;2023-07-29T08:23:25;30.70;67.80
25208;DHT22;13153;52.316;21.166;2023-07-29T08:25:55;30.00;70.60
25208;DHT22;13153;52.316;21.166;2023-07-29T08:28:31;29.30;74.00
25208;DHT22;13153;52.316;21.166;2023-07-29T08:30:58;28.60;75.60
25208;DHT22;13153;52.316;21.166;2023-07-29T08:33:25;27.90;78.50
25208;DHT22;13153;52.316;21.166;2023-07-29T08:35:52;27.40;84.00
25208;DHT22;13153;52.316;21.166;2023-07-29T08:38:18;27.30;90.80
25208;DHT22;13153;52.316;21.166;2023-07-29T08:43:32;27.40;93.00
25208;DHT22;13153;52.316;21.166;2023-07-29T08:45:59;27.40;94.20
25208;DHT22;13153;52.316;21.166;2023-07-29T08:48:55;27.10;96.90
25208;DHT22;13153;52.316;21.166;2023-07-29T08:51:23;26.60;98.40
25208;DHT22;13153;52.316;21.166;2023-07-29T08:53:51;26.30;99.90
25208;DHT22;13153;52.316;21.166;2023-07-29T08:56:17;26.20;99.90
25208;DHT22;13153;52.316;21.166;2023-07-29T08:58:43;26.10;99.90
25208;DHT22;13153;52.316;21.166;2023-07-29T09:01:09;26.00;99.90
25208;DHT22;13153;52.316;21.166;2023-07-29T09:03:36;25.80;99.90
25208;DHT22;13153;52.316;21.166;2023-07-29T09:06:02;25.60;99.90
25208;DHT22;13153;52.316;21.166;2023-07-29T09:08:29;25.50;99.90
25208;DHT22;13153;52.316;21.166;2023-07-29T09:10:55;25.40;99.90
25208;DHT22;13153;52.316;21.166;2023-07-29T09:13:21;25.50;99.90
25208;DHT22;13153;52.316;21.166;2023-07-29T09:15:47;25.60;99.90
25208;DHT22;13153;52.316;21.166;2023-07-29T09:18:18;25.90;99.90
25208;DHT22;13153;52.316;21.166;2023-07-29T09:20:49;26.20;99.90
25208;DHT22;13153;52.316;21.166;2023-07-29T09:23:16;26.60;99.90
25208;DHT22;13153;52.316;21.166;2023-07-29T09:25:42;26.90;99.90
25208;DHT22;13153;52.316;21.166;2023-07-29T09:28:13;27.10;99.90
25208;DHT22;13153;52.316;21.166;2023-07-29T09:30:41;27.20;99.90
25208;DHT22;13153;52.316;21.166;2023-07-29T09:33:09;27.40;99.90
25208;DHT22;13153;52.316;21.166;2023-07-29T09:35:36;27.40;99.90
25208;DHT22;13153;52.316;21.166;2023-07-29T09:38:26;27.10;99.90
25208;DHT22;13153;52.316;21.166;2023-07-29T09:40:55;26.80;99.30
25208;DHT22;13153;52.316;21.166;2023-07-29T09:43:29;26.60;99.90
25208;DHT22;13153;52.316;21.166;2023-07-29T09:46:04;26.50;99.90
25208;DHT22;13153;52.316;21.166;2023-07-29T09:48:37;26.50;99.90
25208;DHT22;13153;52.316;21.166;2023-07-29T09:51:14;26.50;99.90
25208;DHT22;13153;52.316;21.166;2023-07-29T09:53:43;26.50;99.90
25208;DHT22;13153;52.316;21.166;2023-07-29T09:56:11;26.40;99.90
25208;DHT22;13153;52.316;21.166;2023-07-29T09:58:39;26.50;99.90
25208;DHT22;13153;52.316;21.166;2023-07-29T10:01:08;26.50;99.90
25208;DHT22;13153;52.316;21.166;2023-07-29T10:03:35;26.60;99.90
25208;DHT22;13153;52.316;21.166;2023-07-29T10:06:03;26.70;99.50
25208;DHT22;13153;52.316;21.166;2023-07-29T10:08:30;26.70;99.90
25208;DHT22;13153;52.316;21.166;2023-07-29T10:11:14;26.60;99.90
25208;DHT22;13153;52.316;21.166;2023-07-29T10:13:40;26.60;99.90
25208;DHT22;13153;52.316;21.166;2023-07-29T10:16:06;26.60;99.90
25208;DHT22;13153;52.316;21.166;2023-07-29T10:18:33;26.60;99.90
25208;DHT22;13153;52.316;21.166;2023-07-29T10:21:01;26.60;99.90
25208;DHT22;13153;52.316;21.166;2023-07-29T10:23:30;26.40;99.90
25208;DHT22;13153;52.316;21.166;2023-07-29T10:26:06;26.30;99.90
25208;DHT22;13153;52.316;21.166;2023-07-29T10:28:41;26.30;99.90
25208;DHT22;13153;52.316;21.166;2023-07-29T10:31:10;26.40;99.90
25208;DHT22;13153;52.316;21.166;2023-07-29T10:33:38;26.40;99.90
25208;DHT22;13153;52.316;21.166;2023-07-29T10:36:05;26.40;99.90
25208;DHT22;13153;52.316;21.166;2023-07-29T10:38:31;26.40;99.90
25208;DHT22;13153;52.316;21.166;2023-07-29T10:40:58;26.40;99.90
25208;DHT22;13153;52.316;21.166;2023-07-29T10:43:26;26.40;99.90
25208;DHT22;13153;52.316;21.166;2023-07-29T10:46:22;26.40;99.90
25208;DHT22;13153;52.316;21.166;2023-07-29T10:51:34;26.30;99.90
25208;DHT22;13153;52.316;21.166;2023-07-29T10:54:12;26.20;99.90
25208;DHT22;13153;52.316;21.166;2023-07-29T10:56:48;26.10;99.90
25208;DHT22;13153;52.316;21.166;2023-07-29T11:01:53;25.90;99.90
25208;DHT22;13153;52.316;21.166;2023-07-29T11:12:33;25.80;99.90
25208;DHT22;13153;52.316;21.166;2023-07-29T11:15:14;25.80;99.90
25208;DHT22;13153;52.316;21.166;2023-07-29T11:17:51;25.80;99.90
25208;DHT22;13153;52.316;21.166;2023-07-29T11:20:37;25.70;99.90
25208;DHT22;13153;52.316;21.166;2023-07-29T11:23:03;25.70;99.90
25208;DHT22;13153;52.316;21.166;2023-07-29T11:25:30;25.70;99.90
25208;DHT22;13153;52.316;21.166;2023-07-29T11:27:59;25.70;99.90
25208;DHT22;13153;52.316;21.166;2023-07-29T11:30:26;25.70;99.90
25208;DHT22;13153;52.316;21.166;2023-07-29T11:32:53;25.70;99.90
25208;DHT22;13153;52.316;21.166;2023-07-29T11:35:20;25.70;99.90
25208;DHT22;13153;52.316;21.166;2023-07-29T11:37:48;25.80;99.90
25208;DHT22;13153;52.316;21.166;2023-07-29T11:40:20;25.80;99.90
25208;DHT22;13153;52.316;21.166;2023-07-29T11:42:48;25.80;99.90
25208;DHT22;13153;52.316;21.166;2023-07-29T11:45:16;25.80;99.90
25208;DHT22;13153;52.316;21.166;2023-07-29T11:47:42;25.80;99.90
25208;DHT22;13153;52.316;21.166;2023-07-29T11:50:09;25.70;99.90
25208;DHT22;13153;52.316;21.166;2023-07-29T11:52:37;25.70;99.90
25208;DHT22;13153;52.316;21.166;2023-07-29T11:55:06;25.60;99.90
25208;DHT22;13153;52.316;21.166;2023-07-29T11:57:37;25.60;99.40
25208;DHT22;13153;52.316;21.166;2023-07-29T12:00:09;25.60;99.90
25208;DHT22;13153;52.316;21.166;2023-07-29T12:02:37;25.50;99.90
25208;DHT22;13153;52.316;21.166;2023-07-29T12:05:05;25.50;99.90
25208;DHT22;13153;52.316;21.166;2023-07-29T12:07:33;25.40;99.90
25208;DHT22;13153;52.316;21.166;2023-07-29T12:09:59;25.40;99.90
25208;DHT22;13153;52.316;21.166;2023-07-29T12:12:25;25.50;99.90
25208;DHT22;13153;52.316;21.166;2023-07-29T12:14:51;25.50;99.90
25208;DHT22;13153;52.316;21.166;2023-07-29T12:17:19;25.50;99.90
25208;DHT22;13153;52.316;21.166;2023-07-29T12:19:45;25.50;99.90
25208;DHT22;13153;52.316;21.166;2023-07-29T12:22:11;25.50;99.90
25208;DHT22;13153;52.316;21.166;2023-07-29T12:24:39;25.50;99.90
25208;DHT22;13153;52.316;21.166;2023-07-29T12:27:11;25.40;99.90
25208;DHT22;13153;52.316;21.166;2023-07-29T12:29:44;25.30;99.90
25208;DHT22;13153;52.316;21.166;2023-07-29T12:32:11;25.30;99.90
25208;DHT22;13153;52.316;21.166;2023-07-29T12:34:38;25.30;99.90
25208;DHT22;13153;52.316;21.166;2023-07-29T12:37:05;25.40;99.90
25208;DHT22;13153;52.316;21.166;2023-07-29T12:39:34;25.30;99.90
25208;DHT22;13153;52.316;21.166;2023-07-29T12:42:06;25.40;99.90
25208;DHT22;13153;52.316;21.166;2023-07-29T12:44:34;25.40;99.90
25208;DHT22;13153;52.316;21.166;2023-07-29T12:47:02;25.40;99.90
25208;DHT22;13153;52.316;21.166;2023-07-29T12:49:29;25.50;99.90
25208;DHT22;13153;52.316;21.166;2023-07-29T12:51:59;25.50;99.90
25208;DHT22;13153;52.316;21.166;2023-07-29T12:54:25;25.50;99.90
25208;DHT22;13153;52.316;21.166;2023-07-29T12:56:51;25.40;99.90
25208;DHT22;13153;52.316;21.166;2023-07-29T12:59:17;25.40;99.90
25208;DHT22;13153;52.316;21.166;2023-07-29T13:01:43;25.40;99.90
25208;DHT22;13153;52.316;21.166;2023-07-29T13:04:10;25.40;99.90
25208;DHT22;13153;52.316;21.166;2023-07-29T13:06:36;25.40;99.90
25208;DHT22;13153;52.316;21.166;2023-07-29T13:09:03;25.40;99.90
25208;DHT22;13153;52.316;21.166;2023-07-29T13:11:30;25.40;99.90
25208;DHT22;13153;52.316;21.166;2023-07-29T13:13:58;25.40;99.90
25208;DHT22;13153;52.316;21.166;2023-07-29T13:16:23;25.50;99.90
25208;DHT22;13153;52.316;21.166;2023-07-29T13:18:49;25.50;99.90
25208;DHT22;13153;52.316;21.166;2023-07-29T13:21:15;25.60;99.90
25208;DHT22;13153;52.316;21.166;2023-07-29T13:23:41;25.60;99.90
25208;DHT22;13153;52.316;21.166;2023-07-29T13:26:07;25.70;99.90
25208;DHT22;13153;52.316;21.166;2023-07-29T13:28:32;25.70;99.90
25208;DHT22;13153;52.316;21.166;2023-07-29T13:30:58;25.70;99.90
25208;DHT22;13153;52.316;21.166;2023-07-29T13:33:24;25.80;99.90
25208;DHT22;13153;52.316;21.166;2023-07-29T13:35:50;25.80;99.90
25208;DHT22;13153;52.316;21.166;2023-07-29T13:38:16;25.90;99.90
25208;DHT22;13153;52.316;21.166;2023-07-29T13:40:42;25.90;99.90
25208;DHT22;13153;52.316;21.166;2023-07-29T13:43:08;26.00;99.90
25208;DHT22;13153;52.316;21.166;2023-07-29T13:45:34;26.00;99.90
25208;DHT22;13153;52.316;21.166;2023-07-29T13:48:00;25.90;99.90
25208;DHT22;13153;52.316;21.166;2023-07-29T13:50:26;25.80;99.90
25208;DHT22;13153;52.316;21.166;2023-07-29T13:52:51;25.80;99.90
25208;DHT22;13153;52.316;21.166;2023-07-29T13:55:17;25.70;99.90
25208;DHT22;13153;52.316;21.166;2023-07-29T13:57:43;25.70;99.90
25208;DHT22;13153;52.316;21.166;2023-07-29T14:00:09;25.70;99.90
25208;DHT22;13153;52.316;21.166;2023-07-29T14:02:35;25.70;99.90
25208;DHT22;13153;52.316;21.166;2023-07-29T14:05:00;25.70;99.90
25208;DHT22;13153;52.316;21.166;2023-07-29T14:07:26;25.60;99.90
25208;DHT22;13153;52.316;21.166;2023-07-29T14:09:52;25.70;99.90
25208;DHT22;13153;52.316;21.166;2023-07-29T14:12:18;25.70;99.90
25208;DHT22;13153;52.316;21.166;2023-07-29T14:14:43;25.70;99.90
25208;DHT22;13153;52.316;21.166;2023-07-29T14:17:09;25.80;99.90
25208;DHT22;13153;52.316;21.166;2023-07-29T14:19:38;25.90;99.90
25208;DHT22;13153;52.316;21.166;2023-07-29T14:22:04;25.90;99.90
25208;DHT22;13153;52.316;21.166;2023-07-29T14:24:30;26.00;99.90
25208;DHT22;13153;52.316;21.166;2023-07-29T14:26:56;26.00;99.90
25208;DHT22;13153;52.316;21.166;2023-07-29T14:29:21;26.00;99.90
25208;DHT22;13153;52.316;21.166;2023-07-29T14:31:47;25.90;99.90
25208;DHT22;13153;52.316;21.166;2023-07-29T14:34:13;25.90;99.90
25208;DHT22;13153;52.316;21.166;2023-07-29T14:36:39;25.80;99.90
25208;DHT22;13153;52.316;21.166;2023-07-29T14:39:05;25.70;99.90
25208;DHT22;13153;52.316;21.166;2023-07-29T14:41:31;25.70;99.90
25208;DHT22;13153;52.316;21.166;2023-07-29T14:43:57;25.60;99.90
25208;DHT22;13153;52.316;21.166;2023-07-29T14:46:22;25.70;99.90
25208;DHT22;13153;52.316;21.166;2023-07-29T14:48:48;25.60;99.90
25208;DHT22;13153;52.316;21.166;2023-07-29T14:51:14;25.60;99.90
25208;DHT22;13153;52.316;21.166;2023-07-29T14:53:40;25.60;99.90
25208;DHT22;13153;52.316;21.166;2023-07-29T14:56:06;25.60;99.90
25208;DHT22;13153;52.316;21.166;2023-07-29T14:58:32;25.60;99.90
25208;DHT22;13153;52.316;21.166;2023-07-29T15:00:58;25.60;99.90
25208;DHT22;13153;52.316;21.166;2023-07-29T15:03:24;25.60;99.90
25208;DHT22;13153;52.316;21.166;2023-07-29T15:05:50;25.60;99.90
25208;DHT22;13153;52.316;21.166;2023-07-29T15:08:16;25.70;99.90
25208;DHT22;13153;52.316;21.166;2023-07-29T15:10:49;25.70;99.90
25208;DHT22;13153;52.316;21.166;2023-07-29T15:13:15;25.80;99.90
25208;DHT22;13153;52.316;21.166;2023-07-29T15:15:42;25.80;99.90
25208;DHT22;13153;52.316;21.166;2023-07-29T15:18:08;25.80;99.90
25208;DHT22;13153;52.316;21.166;2023-07-29T15:20:34;25.70;99.90
25208;DHT22;13153;52.316;21.166;2023-07-29T15:23:00;25.70;99.90
25208;DHT22;13153;52.316;21.166;2023-07-29T15:25:25;25.60;99.90
25208;DHT22;13153;52.316;21.166;2023-07-29T15:27:51;25.60;99.90
25208;DHT22;13153;52.316;21.166;2023-07-29T15:30:17;25.50;99.90
25208;DHT22;13153;52.316;21.166;2023-07-29T15:32:43;25.40;99.90
25208;DHT22;13153;52.316;21.166;2023-07-29T15:35:10;25.40;99.90
25208;DHT22;13153;52.316;21.166;2023-07-29T15:37:36;25.40;99.90
25208;DHT22;13153;52.316;21.166;2023-07-29T15:40:03;25.30;99.90